createdAt,value
2018-03-14T00:00:53.687Z,100134.05
2018-03-14T00:03:21.075Z,100141.07
2018-03-14T00:05:48.466Z,100142.34
2018-03-14T00:08:15.942Z,100144.00
2018-03-14T00:10:43.337Z,100146.74
2018-03-14T00:13:10.738Z,100146.22
2018-03-14T00:15:38.123Z,100149.36
2018-03-14T00:18:05.527Z,100151.12
2018-03-14T00:20:32.930Z,100156.84
2018-03-14T00:23:00.319Z,100146.63
2018-03-14T00:25:27.703Z,100154.27
2018-03-14T00:27:55.105Z,100155.89
2018-03-14T00:30:22.498Z,100150.50
2018-03-14T00:32:49.894Z,100159.09
2018-03-14T00:35:17.354Z,100159.28
2018-03-14T00:37:44.747Z,100155.17
2018-03-14T00:40:12.171Z,100153.48
2018-03-14T00:42:39.554Z,100145.67
2018-03-14T00:45:06.972Z,100147.87
2018-03-14T00:47:34.363Z,100160.68
2018-03-14T00:50:01.776Z,100157.08
2018-03-14T00:52:29.170Z,100159.17
2018-03-14T00:54:56.560Z,100161.45
2018-03-14T00:57:23.942Z,100167.47
2018-03-14T00:59:51.327Z,100166.48
2018-03-14T01:02:18.762Z,100174.69
2018-03-14T01:04:46.141Z,100174.38
2018-03-14T01:07:13.569Z,100178.40
2018-03-14T01:09:40.959Z,100179.24
2018-03-14T01:12:08.357Z,100181.83
2018-03-14T01:14:35.851Z,100174.34
2018-03-14T01:17:03.260Z,100184.30
2018-03-14T01:19:30.672Z,100181.88
2018-03-14T01:21:58.355Z,100182.77
2018-03-14T01:24:25.782Z,100186.45
2018-03-14T01:26:53.162Z,100188.73
2018-03-14T01:29:20.579Z,100189.25
2018-03-14T01:31:47.970Z,100186.17
2018-03-14T01:34:15.376Z,100188.29
2018-03-14T01:36:42.766Z,100190.54
2018-03-14T01:39:10.165Z,100196.47
2018-03-14T01:41:37.661Z,100196.12
2018-03-14T01:44:05.048Z,100198.78
2018-03-14T01:46:32.462Z,100197.95
2018-03-14T01:48:59.858Z,100196.59
2018-03-14T01:51:27.283Z,100199.58
2018-03-14T01:53:54.729Z,100198.84
2018-03-14T01:56:22.132Z,100205.86
2018-03-14T01:58:49.518Z,100203.05
2018-03-14T02:01:16.901Z,100208.22
2018-03-14T02:03:44.305Z,100215.44
2018-03-14T02:06:11.687Z,100213.86
2018-03-14T02:08:39.079Z,100211.69
2018-03-14T02:11:06.472Z,100211.85
2018-03-14T02:13:33.874Z,100213.55
2018-03-14T02:16:01.334Z,100217.81
2018-03-14T02:18:28.728Z,100216.95
2018-03-14T02:20:56.138Z,100229.95
2018-03-14T02:23:23.601Z,100225.63
2018-03-14T02:25:51.055Z,100231.23
2018-03-14T02:28:18.443Z,100229.56
2018-03-14T02:30:45.839Z,100228.30
2018-03-14T02:33:13.324Z,100230.36
2018-03-14T02:35:40.702Z,100232.09
2018-03-14T02:38:08.099Z,100240.50
2018-03-14T02:40:35.483Z,100246.84
2018-03-14T02:43:02.870Z,100248.96
2018-03-14T02:45:30.246Z,100252.05
2018-03-14T02:47:57.751Z,100256.92
2018-03-14T02:50:25.211Z,100261.50
2018-03-14T02:52:52.608Z,100257.09
2018-03-14T02:55:19.997Z,100261.17
2018-03-14T02:57:47.386Z,100265.91
2018-03-14T03:00:14.827Z,100262.12
2018-03-14T03:02:42.247Z,100259.66
2018-03-14T03:05:09.644Z,100269.66
2018-03-14T03:07:37.058Z,100265.78
2018-03-14T03:10:04.526Z,100265.09
2018-03-14T03:12:31.975Z,100265.95
2018-03-14T03:14:59.430Z,100274.47
2018-03-14T03:17:26.815Z,100273.98
2018-03-14T03:19:54.239Z,100277.02
2018-03-14T03:22:21.638Z,100283.24
2018-03-14T03:24:49.033Z,100281.49
2018-03-14T03:27:16.507Z,100281.54
2018-03-14T03:29:43.966Z,100281.54
2018-03-14T03:32:11.478Z,100285.22
2018-03-14T03:34:38.837Z,100289.51
2018-03-14T03:37:06.227Z,100291.66
2018-03-14T03:39:33.606Z,100286.93
2018-03-14T03:42:01.010Z,100293.60
2018-03-14T03:44:28.407Z,100293.70
2018-03-14T03:46:55.880Z,100299.36
2018-03-14T03:49:23.275Z,100299.20
2018-03-14T03:51:50.665Z,100297.91
2018-03-14T03:54:18.050Z,100301.33
2018-03-14T03:56:45.439Z,100294.16
2018-03-14T03:59:12.855Z,100297.77
2018-03-14T04:01:40.278Z,100293.34
2018-03-14T04:04:07.693Z,100293.22
2018-03-14T04:06:35.070Z,100294.12
2018-03-14T04:09:02.467Z,100301.26
2018-03-14T04:11:29.853Z,100298.69
2018-03-14T04:13:57.259Z,100298.32
2018-03-14T04:16:24.643Z,100299.30
2018-03-14T04:18:52.064Z,100298.51
2018-03-14T04:21:19.442Z,100307.81
2018-03-14T04:23:46.840Z,100307.53
2018-03-14T04:26:14.228Z,100307.53
2018-03-14T04:28:41.679Z,100315.98
2018-03-14T04:31:09.139Z,100315.22
2018-03-14T04:33:36.531Z,100318.98
2018-03-14T04:36:03.917Z,100322.98
2018-03-14T04:38:31.410Z,100324.20
2018-03-14T04:40:58.806Z,100322.11
2018-03-14T04:43:26.222Z,100318.66
2018-03-14T04:45:53.611Z,100328.25
2018-03-14T04:48:20.997Z,100327.75
2018-03-14T04:50:48.490Z,100328.72
2018-03-14T04:53:15.894Z,100331.49
2018-03-14T04:55:43.282Z,100329.87
2018-03-14T04:58:10.734Z,100329.64
2018-03-14T05:00:38.129Z,100331.87
2018-03-14T05:03:05.526Z,100332.98
2018-03-14T05:05:32.924Z,100337.83
2018-03-14T05:08:00.315Z,100340.77
2018-03-14T05:10:27.731Z,100348.22
2018-03-14T05:12:55.183Z,100347.62
2018-03-14T05:15:22.574Z,100347.10
2018-03-14T05:17:49.990Z,100340.70
2018-03-14T05:20:17.422Z,100349.53
2018-03-14T05:22:44.802Z,100344.86
2018-03-14T05:25:12.203Z,100354.71
2018-03-14T05:27:39.596Z,100356.49
2018-03-14T05:30:06.991Z,100353.88
2018-03-14T05:32:34.381Z,100357.43
2018-03-14T05:35:01.771Z,100357.88
2018-03-14T05:37:29.155Z,100356.82
2018-03-14T05:39:56.556Z,100355.84
2018-03-14T05:42:23.960Z,100355.27
2018-03-14T05:44:51.363Z,100355.27
2018-03-14T05:47:18.858Z,100364.16
2018-03-14T05:49:46.255Z,100366.86
2018-03-14T05:52:13.651Z,100370.30
2018-03-14T05:54:41.050Z,100370.88
2018-03-14T05:57:08.447Z,100367.45
2018-03-14T05:59:35.843Z,100377.52
2018-03-14T06:02:03.244Z,100383.08
2018-03-14T06:04:30.642Z,100381.39
2018-03-14T06:06:58.034Z,100375.83
2018-03-14T06:09:25.430Z,100384.75
2018-03-14T06:11:52.916Z,100381.05
2018-03-14T06:14:20.330Z,100386.16
2018-03-14T06:16:47.823Z,100391.00
2018-03-14T06:19:15.214Z,100394.25
2018-03-14T06:21:42.629Z,100393.81
2018-03-14T06:24:10.100Z,100393.45
2018-03-14T06:26:37.501Z,100399.67
2018-03-14T06:29:04.905Z,100401.20
2018-03-14T06:31:32.298Z,100404.48
2018-03-14T06:33:59.686Z,100405.34
2018-03-14T06:36:27.107Z,100414.64
2018-03-14T06:38:54.515Z,100413.05
2018-03-14T06:41:21.910Z,100413.77
2018-03-14T06:43:49.318Z,100419.52
2018-03-14T06:46:16.715Z,100420.73
2018-03-14T06:48:44.138Z,100423.33
2018-03-14T06:51:11.537Z,100420.58
2018-03-14T06:53:38.918Z,100430.73
2018-03-14T06:56:06.420Z,100428.55
2018-03-14T06:58:45.627Z,100431.73
2018-03-14T07:04:23.970Z,100429.37
2018-03-14T07:06:51.423Z,100429.89
2018-03-14T07:09:18.822Z,100431.09
2018-03-14T07:11:46.238Z,100433.05
2018-03-14T07:14:13.630Z,100428.72
2018-03-14T07:16:41.010Z,100431.73
2018-03-14T07:19:08.498Z,100434.11
2018-03-14T07:21:35.890Z,100438.03
2018-03-14T07:24:03.325Z,100434.17
2018-03-14T07:26:30.694Z,100434.92
2018-03-14T07:28:58.116Z,100439.94
2018-03-14T07:31:25.506Z,100442.12
2018-03-14T07:33:52.893Z,100443.38
2018-03-14T07:36:20.381Z,100450.67
2018-03-14T07:38:47.811Z,100454.20
2018-03-14T07:41:15.203Z,100453.17
2018-03-14T07:43:42.658Z,100452.37
2018-03-14T07:46:10.042Z,100458.16
2018-03-14T07:48:37.454Z,100460.03
2018-03-14T07:51:04.847Z,100459.88
2018-03-14T07:53:32.266Z,100459.48
2018-03-14T07:55:59.736Z,100464.07
2018-03-14T07:58:27.114Z,100464.83
2018-03-14T08:00:54.504Z,100467.10
2018-03-14T08:03:21.887Z,100472.10
2018-03-14T08:05:49.284Z,100469.95
2018-03-14T08:08:16.659Z,100474.55
2018-03-14T08:10:44.050Z,100474.23
2018-03-14T08:13:11.435Z,100474.56
2018-03-14T08:15:38.828Z,100472.94
2018-03-14T08:18:06.222Z,100478.14
2018-03-14T08:20:33.685Z,100474.82
2018-03-14T08:23:01.070Z,100484.80
2018-03-14T08:25:28.454Z,100491.88
2018-03-14T08:27:55.950Z,100490.73
2018-03-14T08:30:23.345Z,100493.72
2018-03-14T08:32:50.764Z,100491.03
2018-03-14T08:35:18.206Z,100494.95
2018-03-14T08:37:45.662Z,100495.19
2018-03-14T08:40:13.050Z,100497.20
2018-03-14T08:42:40.445Z,100501.41
2018-03-14T08:45:07.823Z,100505.21
2018-03-14T08:47:35.211Z,100507.63
2018-03-14T08:50:02.661Z,100508.84
2018-03-14T08:52:30.101Z,100511.30
2018-03-14T08:54:57.478Z,100507.66
2018-03-14T08:57:24.875Z,100508.58
2018-03-14T08:59:52.266Z,100507.50
2018-03-14T09:02:19.656Z,100513.27
2018-03-14T09:04:47.047Z,100515.37
2018-03-14T09:07:14.436Z,100512.64
2018-03-14T09:09:41.827Z,100516.12
2018-03-14T09:12:09.207Z,100514.66
2018-03-14T09:14:36.595Z,100515.85
2018-03-14T09:17:04.052Z,100517.77
2018-03-14T09:19:31.435Z,100529.05
2018-03-14T09:21:58.826Z,100526.48
2018-03-14T09:24:26.211Z,100537.73
2018-03-14T09:26:53.599Z,100536.52
2018-03-14T09:29:20.974Z,100534.98
2018-03-14T09:31:48.425Z,100536.73
2018-03-14T09:34:15.762Z,100533.52
2018-03-14T09:36:43.155Z,100529.47
2018-03-14T09:39:10.542Z,100532.67
2018-03-14T09:41:38.002Z,100525.27
2018-03-14T09:44:05.475Z,100528.29
2018-03-14T09:46:32.906Z,100525.45
2018-03-14T09:49:00.315Z,100529.55
2018-03-14T09:51:27.718Z,100520.91
2018-03-14T09:53:55.082Z,100530.30
2018-03-14T09:56:22.535Z,100519.94
2018-03-14T09:58:49.916Z,100529.70
2018-03-14T10:01:17.310Z,100534.75
2018-03-14T10:03:44.806Z,100536.47
2018-03-14T10:06:12.263Z,100533.75
2018-03-14T10:08:39.657Z,100539.91
2018-03-14T10:11:07.039Z,100537.89
2018-03-14T10:13:34.422Z,100544.78
2018-03-14T10:16:01.896Z,100540.11
2018-03-14T10:18:29.279Z,100540.35
2018-03-14T10:20:56.706Z,100542.91
2018-03-14T10:23:24.110Z,100547.81
2018-03-14T10:25:51.580Z,100541.45
2018-03-14T10:28:18.950Z,100540.51
2018-03-14T10:30:46.335Z,100542.14
2018-03-14T10:33:13.719Z,100545.07
2018-03-14T10:35:41.104Z,100534.23
2018-03-14T10:38:08.576Z,100538.98
2018-03-14T10:40:35.960Z,100540.66
2018-03-14T10:43:03.351Z,100541.14
2018-03-14T10:45:30.742Z,100537.69
2018-03-14T10:47:58.215Z,100533.92
2018-03-14T10:50:25.661Z,100539.07
2018-03-14T10:52:53.042Z,100540.09
2018-03-14T10:55:20.434Z,100543.53
2018-03-14T10:57:47.815Z,100544.24
2018-03-14T11:03:18.356Z,100541.83
2018-03-14T11:05:45.747Z,100536.88
2018-03-14T11:08:13.175Z,100536.17
2018-03-14T11:10:40.655Z,100541.84
2018-03-14T11:13:08.091Z,100547.95
2018-03-14T11:15:35.505Z,100546.75
2018-03-14T11:18:02.881Z,100547.70
2018-03-14T11:20:30.241Z,100553.00
2018-03-14T11:22:57.655Z,100547.77
2018-03-14T11:25:25.069Z,100546.59
2018-03-14T11:27:52.454Z,100549.47
2018-03-14T11:30:19.869Z,100543.77
2018-03-14T11:32:47.330Z,100543.50
2018-03-14T11:35:14.801Z,100543.98
2018-03-14T11:37:42.218Z,100546.97
2018-03-14T11:40:09.602Z,100545.42
2018-03-14T11:42:36.994Z,100547.25
2018-03-14T11:45:04.391Z,100553.52
2018-03-14T11:47:31.866Z,100550.20
2018-03-14T11:49:59.326Z,100550.78
2018-03-14T11:52:26.786Z,100549.61
2018-03-14T11:54:54.175Z,100554.31
2018-03-14T11:57:21.613Z,100552.52
2018-03-14T11:59:48.950Z,100547.87
2018-03-14T12:02:16.405Z,100552.59
2018-03-14T12:04:43.790Z,100544.80
2018-03-14T12:07:11.186Z,100553.36
2018-03-14T12:09:38.574Z,100553.28
2018-03-14T12:12:05.975Z,100553.08
2018-03-14T12:14:33.353Z,100558.13
2018-03-14T12:17:00.743Z,100543.22
2018-03-14T12:19:28.126Z,100551.03
2018-03-14T12:21:55.546Z,100546.77
2018-03-14T12:24:22.934Z,100546.70
2018-03-14T12:26:50.324Z,100546.72
2018-03-14T12:29:17.727Z,100540.22
2018-03-14T12:31:45.162Z,100536.48
2018-03-14T12:34:12.551Z,100542.25
2018-03-14T12:36:39.931Z,100538.08
2018-03-14T12:39:07.330Z,100536.00
2018-03-14T12:41:34.795Z,100528.92
2018-03-14T12:44:02.178Z,100530.44
2018-03-14T12:46:29.564Z,100527.50
2018-03-14T12:48:56.951Z,100519.61
2018-03-14T12:51:25.110Z,100524.60
2018-03-14T12:53:52.586Z,100527.04
2018-03-14T12:56:19.976Z,100523.94
2018-03-14T12:58:47.390Z,100526.80
2018-03-14T13:01:14.855Z,100521.28
2018-03-14T13:03:42.302Z,100528.91
2018-03-14T13:06:09.695Z,100524.26
2018-03-14T13:08:37.099Z,100524.84
2018-03-14T13:11:04.538Z,100517.55
2018-03-14T13:13:31.927Z,100524.34
2018-03-14T13:15:59.311Z,100512.19
2018-03-14T13:18:26.722Z,100513.80
2018-03-14T13:20:54.142Z,100517.17
2018-03-14T13:23:21.538Z,100510.46
2018-03-14T13:25:48.931Z,100512.20
2018-03-14T13:28:16.414Z,100504.96
2018-03-14T13:30:43.887Z,100506.13
2018-03-14T13:33:12.049Z,100503.83
2018-03-14T13:35:39.475Z,100506.11
2018-03-14T13:38:06.826Z,100506.02
2018-03-14T13:40:34.214Z,100508.24
2018-03-14T13:43:01.626Z,100497.38
2018-03-14T13:45:29.008Z,100496.12
2018-03-14T13:47:56.480Z,100503.56
2018-03-14T13:50:23.932Z,100505.45
2018-03-14T13:52:51.338Z,100503.97
2018-03-14T13:55:18.774Z,100502.14
2018-03-14T13:57:46.202Z,100490.83
2018-03-14T14:00:13.596Z,100485.96
2018-03-14T14:02:40.994Z,100485.97
2018-03-14T14:05:08.470Z,100485.33
2018-03-14T14:07:35.923Z,100488.88
2018-03-14T14:10:03.388Z,100490.11
2018-03-14T14:12:30.816Z,100479.98
2018-03-14T14:14:58.195Z,100483.67
2018-03-14T14:17:25.650Z,100482.91
2018-03-14T14:19:53.047Z,100483.83
2018-03-14T14:22:20.426Z,100484.13
2018-03-14T14:24:47.933Z,100480.80
2018-03-14T14:27:15.302Z,100478.73
2018-03-14T14:29:42.711Z,100475.79
2018-03-14T14:32:10.193Z,100469.62
2018-03-14T14:34:37.638Z,100463.07
2018-03-14T14:37:05.032Z,100473.25
2018-03-14T14:39:32.459Z,100465.89
2018-03-14T14:41:59.839Z,100460.02
2018-03-14T14:44:27.269Z,100461.66
2018-03-14T14:46:54.719Z,100459.40
2018-03-14T14:49:22.098Z,100459.84
2018-03-14T14:51:49.503Z,100455.24
2018-03-14T14:54:16.893Z,100450.59
2018-03-14T14:56:44.278Z,100444.77
2018-03-14T14:59:11.671Z,100444.64
2018-03-14T15:01:39.154Z,100446.44
2018-03-14T15:04:06.608Z,100438.11
2018-03-14T15:06:33.994Z,100434.12
2018-03-14T15:09:01.387Z,100437.42
2018-03-14T15:11:28.870Z,100435.53
2018-03-14T15:13:56.262Z,100439.04
2018-03-14T15:16:23.647Z,100438.94
2018-03-14T15:18:51.142Z,100436.13
2018-03-14T15:21:18.727Z,100432.83
2018-03-14T15:23:46.058Z,100430.27
2018-03-14T15:26:13.443Z,100435.83
2018-03-14T15:28:40.839Z,100439.95
2018-03-14T15:31:08.326Z,100431.86
2018-03-14T15:33:35.714Z,100425.72
2018-03-14T15:36:03.110Z,100419.30
2018-03-14T15:38:30.482Z,100416.55
2018-03-14T15:40:57.866Z,100421.59
2018-03-14T15:43:25.266Z,100421.00
2018-03-14T15:45:52.650Z,100417.91
2018-03-14T15:48:20.051Z,100416.33
2018-03-14T15:50:47.439Z,100413.19
2018-03-14T15:53:14.823Z,100409.84
2018-03-14T15:55:42.206Z,100405.05
2018-03-14T15:58:09.590Z,100405.89
2018-03-14T16:00:36.970Z,100401.48
2018-03-14T16:03:04.443Z,100397.29
2018-03-14T16:05:31.826Z,100399.83
2018-03-14T16:07:59.249Z,100390.16
2018-03-14T16:10:26.673Z,100394.61
2018-03-14T16:12:54.066Z,100400.34
2018-03-14T16:15:21.459Z,100397.16
2018-03-14T16:17:48.847Z,100395.33
2018-03-14T16:20:16.234Z,100394.07
2018-03-14T16:22:43.635Z,100389.57
2018-03-14T16:25:11.022Z,100395.64
2018-03-14T16:27:38.399Z,100396.67
2018-03-14T16:30:05.854Z,100400.25
2018-03-14T16:32:33.303Z,100394.11
2018-03-14T16:35:00.690Z,100402.81
2018-03-14T16:37:28.086Z,100406.05
2018-03-14T16:39:55.486Z,100407.52
2018-03-14T16:42:22.923Z,100408.59
2018-03-14T16:44:50.311Z,100405.80
2018-03-14T16:47:17.695Z,100404.66
2018-03-14T16:49:45.089Z,100403.04
2018-03-14T16:52:12.547Z,100410.90
2018-03-14T16:54:39.931Z,100403.14
2018-03-14T16:57:07.310Z,100402.31
2018-03-14T16:59:34.702Z,100407.23
2018-03-14T17:02:02.083Z,100410.57
2018-03-14T17:04:29.473Z,100408.01
2018-03-14T17:06:56.859Z,100404.64
2018-03-14T17:09:24.250Z,100400.48
2018-03-14T17:11:51.655Z,100399.67
2018-03-14T17:14:27.132Z,100404.13
2018-03-14T17:16:46.622Z,100402.83
2018-03-14T17:19:13.991Z,100401.56
2018-03-14T17:21:41.379Z,100394.06
2018-03-14T17:24:08.771Z,100398.11
2018-03-14T17:26:36.224Z,100403.81
2018-03-14T17:29:03.683Z,100402.03
2018-03-14T17:31:31.079Z,100404.50
2018-03-14T17:33:58.470Z,100403.90
2018-03-14T17:36:25.891Z,100408.88
2018-03-14T17:38:53.248Z,100408.98
2018-03-14T17:41:20.662Z,100410.28
2018-03-14T17:43:48.094Z,100410.09
2018-03-14T17:46:15.425Z,100413.65
2018-03-14T17:48:42.814Z,100412.55
2018-03-14T17:51:10.286Z,100410.24
2018-03-14T17:53:37.660Z,100413.86
2018-03-14T17:56:05.043Z,100414.39
2018-03-14T17:58:32.433Z,100415.65
2018-03-14T18:00:59.822Z,100424.88
2018-03-14T18:03:27.207Z,100425.56
2018-03-14T18:05:54.609Z,100426.97
2018-03-14T18:08:22.104Z,100425.09
2018-03-14T18:10:49.503Z,100434.69
2018-03-14T18:13:16.920Z,100433.41
2018-03-14T18:15:44.302Z,100428.76
2018-03-14T18:18:11.779Z,100426.02
2018-03-14T18:20:39.178Z,100434.73
2018-03-14T18:23:06.557Z,100437.15
2018-03-14T18:25:33.946Z,100438.19
2018-03-14T18:28:01.354Z,100434.21
2018-03-14T18:30:28.759Z,100431.59
2018-03-14T18:32:56.243Z,100442.75
2018-03-14T18:35:23.640Z,100444.59
2018-03-14T18:37:51.035Z,100438.19
2018-03-14T18:40:18.495Z,100444.55
2018-03-14T18:42:45.951Z,100439.41
2018-03-14T18:45:13.335Z,100446.95
2018-03-14T18:47:40.763Z,100440.18
2018-03-14T18:50:08.310Z,100440.01
2018-03-14T18:52:35.707Z,100439.97
2018-03-14T18:55:03.177Z,100441.01
2018-03-14T18:57:30.543Z,100445.73
2018-03-14T18:59:57.963Z,100453.44
2018-03-14T19:02:25.365Z,100454.02
2018-03-14T19:04:52.757Z,100441.14
2018-03-14T19:07:20.164Z,100441.13
2018-03-14T19:09:47.563Z,100448.50
2018-03-14T19:12:14.951Z,100452.07
2018-03-14T19:14:42.406Z,100450.30
2018-03-14T19:17:09.792Z,100453.55
2018-03-14T19:19:37.238Z,100448.72
2018-03-14T19:22:04.574Z,100446.67
2018-03-14T19:24:31.983Z,100437.86
2018-03-14T19:26:59.359Z,100435.75
2018-03-14T19:29:26.834Z,100434.78
2018-03-14T19:31:54.218Z,100437.72
2018-03-14T19:34:21.643Z,100434.59
2018-03-14T19:36:49.131Z,100431.09
2018-03-14T19:39:16.564Z,100429.29
2018-03-14T19:41:44.010Z,100427.83
2018-03-14T19:44:11.409Z,100426.90
2018-03-14T19:46:38.796Z,100423.61
2018-03-14T19:49:06.184Z,100425.02
2018-03-14T19:51:33.641Z,100423.28
2018-03-14T19:54:01.096Z,100416.84
2018-03-14T19:56:28.479Z,100420.64
2018-03-14T19:58:55.867Z,100416.44
2018-03-14T20:01:23.246Z,100413.39
2018-03-14T20:03:50.644Z,100404.95
2018-03-14T20:06:18.069Z,100397.70
2018-03-14T20:08:45.529Z,100395.48
2018-03-14T20:11:12.866Z,100393.84
2018-03-14T20:13:40.340Z,100390.19
2018-03-14T20:16:07.731Z,100393.81
2018-03-14T20:18:35.158Z,100397.93
2018-03-14T20:21:02.602Z,100399.34
2018-03-14T20:23:29.974Z,100392.15
2018-03-14T20:25:57.373Z,100388.63
2018-03-14T20:28:24.751Z,100385.73
2018-03-14T20:30:52.142Z,100377.33
2018-03-14T20:33:19.529Z,100369.25
2018-03-14T20:35:46.966Z,100369.62
2018-03-14T20:38:14.356Z,100368.92
2018-03-14T20:40:41.760Z,100358.96
2018-03-14T20:43:09.130Z,100357.01
2018-03-14T20:45:36.515Z,100364.20
2018-03-14T20:48:03.902Z,100357.42
2018-03-14T20:50:31.294Z,100354.86
2018-03-14T20:52:58.695Z,100352.14
2018-03-14T20:55:26.090Z,100345.60
2018-03-14T20:57:53.536Z,100345.80
2018-03-14T21:00:20.882Z,100339.76
2018-03-14T21:02:48.304Z,100340.38
2018-03-14T21:05:15.691Z,100338.22
2018-03-14T21:07:43.083Z,100331.08
2018-03-14T21:10:10.491Z,100326.41
2018-03-14T21:12:37.967Z,100323.46
2018-03-14T21:15:05.347Z,100326.58
2018-03-14T21:17:32.743Z,100319.91
2018-03-14T21:20:00.130Z,100324.30
2018-03-14T21:22:27.563Z,100327.38
2018-03-14T21:24:54.961Z,100318.46
2018-03-14T21:27:22.362Z,100316.73
2018-03-14T21:29:49.851Z,100312.24
2018-03-14T21:32:17.264Z,100314.34
2018-03-14T21:34:44.771Z,100309.39
2018-03-14T21:37:12.166Z,100309.81
2018-03-14T21:39:39.570Z,100308.59
2018-03-14T21:42:06.967Z,100302.52
2018-03-14T21:44:34.424Z,100310.92
2018-03-14T21:47:01.790Z,100307.69
2018-03-14T21:49:29.182Z,100305.50
2018-03-14T21:51:56.584Z,100296.85
2018-03-14T21:54:23.975Z,100298.67
2018-03-14T21:56:51.379Z,100294.34
2018-03-14T21:59:18.817Z,100297.66
2018-03-14T22:01:46.243Z,100294.02
2018-03-14T22:04:13.630Z,100295.41
2018-03-14T22:06:41.042Z,100287.12
2018-03-14T22:09:08.447Z,100297.02
2018-03-14T22:11:35.996Z,100291.67
2018-03-14T22:14:03.410Z,100284.11
2018-03-14T22:16:30.813Z,100282.98
2018-03-14T22:18:58.219Z,100278.38
2018-03-14T22:21:25.674Z,100273.42
2018-03-14T22:23:53.068Z,100276.78
2018-03-14T22:26:20.483Z,100269.53
2018-03-14T22:28:47.854Z,100264.70
2018-03-14T22:31:15.267Z,100255.98
2018-03-14T22:33:42.682Z,100258.69
2018-03-14T22:36:10.091Z,100262.81
2018-03-14T22:38:37.499Z,100258.10
2018-03-14T22:41:04.887Z,100260.80
2018-03-14T22:43:32.296Z,100259.77
2018-03-14T22:45:59.728Z,100257.16
2018-03-14T22:48:27.142Z,100256.66
2018-03-14T22:50:54.548Z,100263.48
2018-03-14T22:53:21.937Z,100259.22
2018-03-14T22:55:49.336Z,100254.00
2018-03-14T22:58:16.735Z,100258.77
2018-03-14T23:00:44.128Z,100257.84
2018-03-14T23:03:11.619Z,100257.36
2018-03-14T23:05:39.015Z,100254.61
2018-03-14T23:08:06.423Z,100249.90
2018-03-14T23:10:33.879Z,100242.72
2018-03-14T23:13:01.275Z,100245.37
2018-03-14T23:15:28.674Z,100237.53
2018-03-14T23:17:56.150Z,100227.63
2018-03-14T23:20:23.553Z,100227.44
2018-03-14T23:22:50.950Z,100224.45
2018-03-14T23:25:18.424Z,100228.41
2018-03-14T23:27:45.826Z,100228.94
2018-03-14T23:30:13.230Z,100226.23
2018-03-14T23:32:40.649Z,100226.82
2018-03-14T23:35:08.080Z,100222.27
2018-03-14T23:37:35.430Z,100220.44
2018-03-14T23:40:02.823Z,100223.48
2018-03-14T23:42:30.326Z,100223.19
2018-03-14T23:44:57.766Z,100218.48
2018-03-14T23:47:25.158Z,100209.23
2018-03-14T23:49:52.547Z,100213.30
2018-03-14T23:52:19.946Z,100203.59
2018-03-14T23:54:47.394Z,100205.50
2018-03-14T23:57:14.795Z,100203.58
2018-03-14T23:59:42.210Z,100203.21
